createdAt,value
2024-04-30T00:01:25.039Z,97166.63
2024-04-30T00:04:12.614Z,97161.16
2024-04-30T00:06:59.704Z,97169.00
2024-04-30T00:09:46.636Z,97160.03
2024-04-30T00:12:33.707Z,97161.63
2024-04-30T00:15:20.634Z,97161.31
2024-04-30T00:18:07.610Z,97165.38
2024-04-30T00:20:54.575Z,97160.72
2024-04-30T00:23:41.608Z,97164.00
2024-04-30T00:26:28.561Z,97158.50
2024-04-30T00:29:15.806Z,97159.28
2024-04-30T00:32:02.878Z,97158.41
2024-04-30T00:34:50.001Z,97157.56
2024-04-30T00:37:37.329Z,97170.53
2024-04-30T00:40:24.381Z,97156.16
2024-04-30T00:43:11.405Z,97154.78
2024-04-30T00:45:58.411Z,97156.38
2024-04-30T00:48:45.564Z,97157.69
2024-04-30T00:51:32.709Z,97158.19
2024-04-30T00:54:20.341Z,97159.78
2024-04-30T00:57:08.087Z,97158.44
2024-04-30T00:59:55.100Z,97165.69
2024-04-30T01:02:42.132Z,97165.38
2024-04-30T01:05:29.115Z,97160.47
2024-04-30T01:08:16.055Z,97160.16
2024-04-30T01:11:03.277Z,97168.25
2024-04-30T01:13:50.232Z,97162.22
2024-04-30T01:16:37.249Z,97166.75
2024-04-30T01:19:24.268Z,97159.16
2024-04-30T01:22:11.238Z,97164.25
2024-04-30T01:24:58.305Z,97160.16
2024-04-30T01:27:45.288Z,97165.81
2024-04-30T01:30:32.255Z,97163.59
2024-04-30T01:33:19.646Z,97160.34
2024-04-30T01:36:06.729Z,97156.53
2024-04-30T01:38:53.655Z,97163.00
2024-04-30T01:41:43.592Z,97156.44
2024-04-30T01:44:31.065Z,97164.00
2024-04-30T01:47:18.019Z,97169.91
2024-04-30T01:50:07.062Z,97163.38
2024-04-30T01:52:54.152Z,97165.78
2024-04-30T01:55:41.258Z,97168.97
2024-04-30T01:58:28.296Z,97165.69
2024-04-30T02:01:18.503Z,97158.13
2024-04-30T02:04:05.849Z,97157.53
2024-04-30T02:06:52.792Z,97164.25
2024-04-30T02:09:39.748Z,97162.31
2024-04-30T02:12:26.954Z,97166.88
2024-04-30T02:15:13.932Z,97163.00
2024-04-30T02:18:00.911Z,97158.13
2024-04-30T02:20:47.914Z,97156.47
2024-04-30T02:23:34.880Z,97162.13
2024-04-30T02:26:21.856Z,97161.00
2024-04-30T02:29:08.940Z,97153.88
2024-04-30T02:32:14.520Z,97160.59
2024-04-30T02:35:01.489Z,97153.03
2024-04-30T02:37:48.442Z,97148.56
2024-04-30T02:40:35.512Z,97153.38
2024-04-30T02:43:22.563Z,97147.44
2024-04-30T02:46:09.600Z,97149.81
2024-04-30T02:48:56.542Z,97155.44
2024-04-30T02:51:43.518Z,97154.09
2024-04-30T02:54:30.476Z,97159.16
2024-04-30T02:57:17.413Z,97159.34
2024-04-30T03:00:04.686Z,97155.72
2024-04-30T03:02:51.654Z,97144.38
2024-04-30T03:05:38.584Z,97137.56
2024-04-30T03:08:25.579Z,97144.28
2024-04-30T03:11:12.559Z,97143.16
2024-04-30T03:13:59.554Z,97140.69
2024-04-30T03:16:46.497Z,97136.03
2024-04-30T03:19:35.770Z,97137.34
2024-04-30T03:22:24.591Z,97133.25
2024-04-30T03:25:11.758Z,97131.84
2024-04-30T03:28:02.180Z,97132.94
2024-04-30T03:30:52.135Z,97118.03
2024-04-30T03:33:39.215Z,97131.22
2024-04-30T03:36:26.338Z,97131.72
2024-04-30T03:39:13.671Z,97135.94
2024-04-30T03:42:00.961Z,97133.75
2024-04-30T03:44:50.370Z,97131.56
2024-04-30T03:47:37.534Z,97133.91
2024-04-30T03:50:24.857Z,97140.63
2024-04-30T03:53:11.850Z,97145.09
2024-04-30T03:55:58.789Z,97141.00
2024-04-30T03:58:45.857Z,97140.66
2024-04-30T04:01:33.366Z,97133.31
2024-04-30T04:04:20.442Z,97140.22
2024-04-30T04:07:07.666Z,97134.28
2024-04-30T04:09:54.724Z,97142.84
2024-04-30T04:13:00.424Z,97141.44
2024-04-30T04:15:47.408Z,97144.88
2024-04-30T04:18:34.489Z,97155.91
2024-04-30T04:21:23.980Z,97149.84
2024-04-30T04:24:11.288Z,97153.59
2024-04-30T04:26:58.222Z,97146.81
2024-04-30T04:29:45.191Z,97144.59
2024-04-30T04:32:32.502Z,97150.00
2024-04-30T04:35:19.693Z,97146.47
2024-04-30T04:38:06.675Z,97147.53
2024-04-30T04:40:53.611Z,97143.19
2024-04-30T04:43:40.770Z,97156.94
2024-04-30T04:46:27.805Z,97160.66
2024-04-30T04:49:14.780Z,97148.25
2024-04-30T04:52:01.875Z,97152.84
2024-04-30T04:54:48.939Z,97151.19
2024-04-30T04:57:35.969Z,97155.19
2024-04-30T05:00:25.067Z,97150.88
2024-04-30T05:03:13.659Z,97156.47
2024-04-30T05:06:02.351Z,97151.34
2024-04-30T05:08:49.233Z,97158.84
2024-04-30T05:11:36.221Z,97154.50
2024-04-30T05:14:23.273Z,97160.97
2024-04-30T05:17:10.461Z,97160.16
2024-04-30T05:19:57.493Z,97160.38
2024-04-30T05:22:44.457Z,97147.97
2024-04-30T05:25:31.457Z,97147.97
2024-04-30T05:28:18.460Z,97155.25
2024-04-30T05:31:05.501Z,97153.34
2024-04-30T05:33:52.470Z,97156.28
2024-04-30T05:36:39.694Z,97151.72
2024-04-30T05:39:26.796Z,97155.25
2024-04-30T05:42:13.892Z,97148.19
2024-04-30T05:45:01.104Z,97151.72
2024-04-30T05:47:48.156Z,97150.06
2024-04-30T05:50:35.208Z,97140.16
2024-04-30T05:53:22.173Z,97145.88
2024-04-30T05:56:09.158Z,97148.44
2024-04-30T05:58:56.105Z,97154.84
2024-04-30T06:01:43.103Z,97151.25
2024-04-30T06:04:30.213Z,97147.34
2024-04-30T06:07:17.287Z,97150.81
2024-04-30T06:10:04.607Z,97156.25
2024-04-30T06:12:51.998Z,97158.72
2024-04-30T06:15:38.957Z,97164.97
2024-04-30T06:18:26.137Z,97150.50
2024-04-30T06:21:19.881Z,97162.72
2024-04-30T06:24:10.745Z,97156.66
2024-04-30T06:26:57.687Z,97154.94
2024-04-30T06:29:44.622Z,97155.66
2024-04-30T06:32:31.593Z,97148.06
2024-04-30T06:35:18.565Z,97148.78
2024-04-30T06:38:05.671Z,97149.03
2024-04-30T06:40:52.774Z,97144.94
2024-04-30T06:43:39.933Z,97134.97
2024-04-30T06:46:26.992Z,97137.91
2024-04-30T06:49:13.987Z,97139.78
2024-04-30T06:52:00.996Z,97130.66
2024-04-30T06:54:47.944Z,97131.47
2024-04-30T06:57:34.890Z,97129.31
2024-04-30T07:00:21.843Z,97131.78
2024-04-30T07:03:12.080Z,97134.22
2024-04-30T07:05:59.093Z,97121.56
2024-04-30T07:08:46.972Z,97122.97
2024-04-30T07:11:34.079Z,97122.50
2024-04-30T07:14:21.062Z,97113.44
2024-04-30T07:17:09.191Z,97113.84
2024-04-30T07:19:56.678Z,97115.31
2024-04-30T07:22:43.713Z,97116.59
2024-04-30T07:25:33.191Z,97108.91
2024-04-30T07:28:20.234Z,97115.75
2024-04-30T07:31:07.318Z,97110.19
2024-04-30T07:33:54.331Z,97099.78
2024-04-30T07:36:41.326Z,97103.94
2024-04-30T07:39:28.275Z,97105.94
2024-04-30T07:42:15.210Z,97109.50
2024-04-30T07:45:02.193Z,97109.59
2024-04-30T07:47:51.449Z,97121.03
2024-04-30T07:50:38.869Z,97114.88
2024-04-30T07:53:25.811Z,97123.63
2024-04-30T07:56:12.764Z,97112.88
2024-04-30T07:58:59.759Z,97115.41
2024-04-30T08:01:46.848Z,97112.81
2024-04-30T08:04:34.498Z,97116.38
2024-04-30T08:07:21.508Z,97111.03
2024-04-30T08:10:08.569Z,97115.69
2024-04-30T08:12:55.556Z,97111.16
2024-04-30T08:15:42.552Z,97113.13
2024-04-30T08:18:29.509Z,97106.69
2024-04-30T08:21:16.812Z,97111.31
2024-04-30T08:24:04.010Z,97107.88
2024-04-30T08:26:50.987Z,97107.69
2024-04-30T08:29:38.078Z,97111.25
2024-04-30T08:32:25.551Z,97111.31
2024-04-30T08:35:12.598Z,97110.53
2024-04-30T08:38:01.331Z,97115.75
2024-04-30T08:40:49.422Z,97107.72
2024-04-30T08:43:37.644Z,97107.50
2024-04-30T08:46:25.568Z,97108.34
2024-04-30T08:49:20.077Z,97113.56
2024-04-30T08:52:11.314Z,97106.31
2024-04-30T08:54:58.743Z,97106.09
2024-04-30T08:57:45.970Z,97106.94
2024-04-30T09:00:33.120Z,97120.53
2024-04-30T09:03:25.184Z,97111.63
2024-04-30T09:06:12.494Z,97108.72
2024-04-30T09:08:59.521Z,97107.41
2024-04-30T09:11:46.943Z,97110.97
2024-04-30T09:14:43.370Z,97097.19
2024-04-30T09:17:33.266Z,97095.06
2024-04-30T09:20:21.345Z,97100.88
2024-04-30T09:23:08.303Z,97089.25
2024-04-30T09:25:56.042Z,97087.09
2024-04-30T09:28:43.805Z,97088.75
2024-04-30T09:31:38.111Z,97072.25
2024-04-30T09:34:25.224Z,97076.63
2024-04-30T09:37:22.701Z,97077.19
2024-04-30T09:40:10.234Z,97062.84
2024-04-30T09:42:57.476Z,97068.84
2024-04-30T09:45:44.434Z,97071.31
2024-04-30T09:48:31.921Z,97064.81
2024-04-30T09:51:19.253Z,97062.72
2024-04-30T09:54:06.277Z,97065.13
2024-04-30T09:56:54.413Z,97054.03
2024-04-30T09:59:42.102Z,97048.34
2024-04-30T10:02:30.302Z,97039.97
2024-04-30T10:05:32.106Z,97040.50
2024-04-30T10:08:20.232Z,97041.31
2024-04-30T10:11:08.126Z,97042.97
2024-04-30T10:13:55.860Z,97031.03
2024-04-30T10:16:58.530Z,97028.84
2024-04-30T10:19:47.394Z,97023.16
2024-04-30T10:22:38.278Z,97022.84
2024-04-30T10:25:25.753Z,97022.09
2024-04-30T10:28:15.157Z,97014.22
2024-04-30T10:31:12.796Z,97006.84
2024-04-30T10:34:08.179Z,97001.44
2024-04-30T10:36:55.188Z,97007.66
2024-04-30T10:39:42.324Z,96998.66
2024-04-30T10:42:34.475Z,97001.38
2024-04-30T10:45:22.971Z,97005.72
2024-04-30T10:48:10.944Z,97003.00
2024-04-30T10:51:01.225Z,96992.09
2024-04-30T10:53:49.368Z,96989.88
2024-04-30T10:56:36.349Z,96982.53
2024-04-30T10:59:27.662Z,96979.66
2024-04-30T11:02:18.835Z,96975.25
2024-04-30T11:05:15.704Z,96975.69
2024-04-30T11:08:03.466Z,96970.00
2024-04-30T11:10:50.571Z,96960.63
2024-04-30T11:13:37.819Z,96966.75
2024-04-30T11:16:24.823Z,96962.31
2024-04-30T11:19:13.260Z,96960.50
2024-04-30T11:22:00.435Z,96958.72
2024-04-30T11:24:47.416Z,96959.44
2024-04-30T11:27:34.385Z,96957.16
2024-04-30T11:30:21.356Z,96944.50
2024-04-30T11:33:08.422Z,96944.34
2024-04-30T11:35:55.415Z,96930.03
2024-04-30T11:38:44.177Z,96935.84
2024-04-30T11:41:31.166Z,96933.19
2024-04-30T11:44:18.108Z,96924.03
2024-04-30T11:47:07.081Z,96922.53
2024-04-30T11:49:54.081Z,96925.38
2024-04-30T11:52:41.152Z,96906.38
2024-04-30T11:55:28.294Z,96910.34
2024-04-30T11:58:17.888Z,96904.78
2024-04-30T12:01:05.280Z,96909.03
2024-04-30T12:03:52.374Z,96902.66
2024-04-30T12:06:39.664Z,96899.88
2024-04-30T12:09:26.947Z,96899.75
2024-04-30T12:12:13.939Z,96899.38
2024-04-30T12:15:00.939Z,96888.31
2024-04-30T12:17:48.047Z,96891.78
2024-04-30T12:20:35.078Z,96877.50
2024-04-30T12:23:22.069Z,96883.97
2024-04-30T12:26:09.808Z,96878.69
2024-04-30T12:28:56.839Z,96887.91
2024-04-30T12:31:44.270Z,96883.44
2024-04-30T12:34:31.496Z,96877.38
2024-04-30T12:37:20.233Z,96869.34
2024-04-30T12:40:08.772Z,96882.09
2024-04-30T12:42:55.756Z,96874.09
2024-04-30T12:45:42.931Z,96869.94
2024-04-30T12:48:29.972Z,96872.91
2024-04-30T12:51:17.707Z,96873.09
2024-04-30T12:54:04.983Z,96865.09
2024-04-30T12:56:52.011Z,96849.97
2024-04-30T12:59:40.550Z,96855.94
2024-04-30T13:02:27.969Z,96844.38
2024-04-30T13:05:15.376Z,96840.53
2024-04-30T13:08:02.632Z,96852.16
2024-04-30T13:10:50.072Z,96859.72
2024-04-30T13:13:38.083Z,96846.25
2024-04-30T13:16:25.296Z,96834.69
2024-04-30T13:19:12.519Z,96837.59
2024-04-30T13:21:59.771Z,96823.63
2024-04-30T13:24:48.264Z,96813.66
2024-04-30T13:27:35.675Z,96815.78
2024-04-30T13:30:23.045Z,96821.44
2024-04-30T13:33:12.158Z,96814.50
2024-04-30T13:35:59.463Z,96798.59
2024-04-30T13:38:46.587Z,96813.28
2024-04-30T13:41:34.219Z,96800.09
2024-04-30T13:44:21.252Z,96799.47
2024-04-30T13:47:08.373Z,96799.66
2024-04-30T13:49:55.746Z,96792.47
2024-04-30T13:52:42.930Z,96791.81
2024-04-30T13:55:29.978Z,96777.81
2024-04-30T13:58:17.012Z,96778.78
2024-04-30T14:01:04.171Z,96771.06
2024-04-30T14:03:51.382Z,96774.47
2024-04-30T14:06:39.575Z,96791.09
2024-04-30T14:09:29.600Z,96777.06
2024-04-30T14:12:16.716Z,96772.72
2024-04-30T14:15:04.216Z,96769.34
2024-04-30T14:17:51.221Z,96764.38
2024-04-30T14:20:38.206Z,96765.66
2024-04-30T14:23:26.291Z,96756.81
2024-04-30T14:26:16.676Z,96752.31
2024-04-30T14:29:10.193Z,96752.81
2024-04-30T14:31:57.324Z,96759.56
2024-04-30T14:34:44.349Z,96747.16
2024-04-30T14:37:31.467Z,96750.06
2024-04-30T14:40:18.497Z,96749.44
2024-04-30T14:43:05.533Z,96753.53
2024-04-30T14:45:52.594Z,96737.56
2024-04-30T14:48:39.737Z,96740.78
2024-04-30T14:51:36.495Z,96733.88
2024-04-30T14:54:23.536Z,96740.16
2024-04-30T14:57:10.462Z,96746.13
2024-04-30T14:59:57.381Z,96737.88
2024-04-30T15:02:44.457Z,96726.63
2024-04-30T15:05:32.892Z,96727.44
2024-04-30T15:08:20.062Z,96735.00
2024-04-30T15:11:18.305Z,96726.78
2024-04-30T15:14:05.411Z,96720.19
2024-04-30T15:16:52.545Z,96725.31
2024-04-30T15:19:39.984Z,96709.69
2024-04-30T15:22:26.993Z,96706.94
2024-04-30T15:25:14.147Z,96707.78
2024-04-30T15:28:01.141Z,96699.72
2024-04-30T15:30:48.157Z,96697.78
2024-04-30T15:33:36.567Z,96691.16
2024-04-30T15:36:23.702Z,96695.50
2024-04-30T15:39:10.711Z,96691.66
2024-04-30T15:41:57.978Z,96686.97
2024-04-30T15:44:44.963Z,96679.84
2024-04-30T15:47:31.960Z,96682.28
2024-04-30T15:50:19.136Z,96677.13
2024-04-30T15:53:06.081Z,96670.38
2024-04-30T15:56:05.257Z,96674.22
2024-04-30T15:58:59.967Z,96665.84
2024-04-30T16:01:47.053Z,96665.69
2024-04-30T16:04:34.196Z,96666.63
2024-04-30T16:07:21.324Z,96649.56
2024-04-30T16:10:08.567Z,96657.63
2024-04-30T16:12:56.673Z,96646.47
2024-04-30T16:15:43.537Z,96652.25
2024-04-30T16:18:30.627Z,96646.31
2024-04-30T16:21:17.655Z,96633.06
2024-04-30T16:24:06.855Z,96640.50
2024-04-30T16:26:54.977Z,96640.31
2024-04-30T16:29:41.848Z,96632.28
2024-04-30T16:32:29.451Z,96628.72
2024-04-30T16:35:16.519Z,96634.69
2024-04-30T16:38:03.541Z,96629.19
2024-04-30T16:40:50.530Z,96628.91
2024-04-30T16:43:37.473Z,96626.63
2024-04-30T16:46:24.505Z,96630.97
2024-04-30T16:49:11.504Z,96630.97
2024-04-30T16:51:58.597Z,96629.06
2024-04-30T16:54:45.722Z,96631.31
2024-04-30T16:57:32.799Z,96621.94
2024-04-30T17:00:20.106Z,96613.72
2024-04-30T17:03:07.168Z,96617.09
2024-04-30T17:05:54.189Z,96615.19
2024-04-30T17:08:41.689Z,96615.50
2024-04-30T17:11:28.647Z,96615.84
2024-04-30T17:14:15.607Z,96608.72
2024-04-30T17:17:02.750Z,96612.59
2024-04-30T17:19:49.753Z,96604.72
2024-04-30T17:22:37.583Z,96611.00
2024-04-30T17:25:24.538Z,96602.78
2024-04-30T17:28:11.480Z,96601.97
2024-04-30T17:30:58.534Z,96598.44
2024-04-30T17:33:46.773Z,96599.53
2024-04-30T17:36:39.240Z,96594.38
2024-04-30T17:39:26.227Z,96589.56
2024-04-30T17:42:13.176Z,96598.41
2024-04-30T17:45:00.161Z,96599.88
2024-04-30T17:47:47.315Z,96601.63
2024-04-30T17:50:34.699Z,96591.31
2024-04-30T17:53:22.605Z,96599.03
2024-04-30T17:56:09.571Z,96595.81
2024-04-30T17:58:56.528Z,96598.88
2024-04-30T18:01:44.488Z,96600.63
2024-04-30T18:04:31.581Z,96595.78
2024-04-30T18:07:18.560Z,96599.16
2024-04-30T18:10:05.628Z,96596.75
2024-04-30T18:12:52.653Z,96606.09
2024-04-30T18:15:39.760Z,96600.94
2024-04-30T18:18:27.710Z,96603.19
2024-04-30T18:21:22.263Z,96601.91
2024-04-30T18:24:09.276Z,96599.25
2024-04-30T18:26:56.221Z,96604.56
2024-04-30T18:29:43.256Z,96600.38
2024-04-30T18:32:30.275Z,96608.41
2024-04-30T18:35:17.296Z,96601.16
2024-04-30T18:38:05.489Z,96599.34
2024-04-30T18:40:52.500Z,96604.66
2024-04-30T18:43:41.162Z,96606.13
2024-04-30T18:46:28.301Z,96608.69
2024-04-30T18:49:15.458Z,96603.03
2024-04-30T18:52:02.581Z,96606.69
2024-04-30T18:54:49.638Z,96608.44
2024-04-30T18:57:37.121Z,96610.19
2024-04-30T19:00:24.139Z,96604.88
2024-04-30T19:03:12.093Z,96603.56
2024-04-30T19:05:59.105Z,96606.09
2024-04-30T19:08:46.380Z,96596.56
2024-04-30T19:11:33.537Z,96606.53
2024-04-30T19:14:20.701Z,96599.75
2024-04-30T19:17:07.774Z,96609.09
2024-04-30T19:19:54.715Z,96609.41
2024-04-30T19:22:41.993Z,96603.44
2024-04-30T19:25:29.048Z,96610.03
2024-04-30T19:28:16.010Z,96604.38
2024-04-30T19:31:03.065Z,96605.50
2024-04-30T19:33:50.202Z,96610.47
2024-04-30T19:36:37.302Z,96605.63
2024-04-30T19:39:24.364Z,96607.88
2024-04-30T19:42:11.400Z,96609.28
2024-04-30T19:44:58.382Z,96609.13
2024-04-30T19:47:45.382Z,96608.59
2024-04-30T19:50:32.432Z,96604.59
2024-04-30T19:53:19.366Z,96600.53
2024-04-30T19:56:06.913Z,96606.34
2024-04-30T19:58:57.401Z,96608.03
2024-04-30T20:01:45.569Z,96610.31
2024-04-30T20:04:32.605Z,96602.72
2024-04-30T20:07:19.605Z,96603.34
2024-04-30T20:10:06.980Z,96600.41
2024-04-30T20:12:54.491Z,96594.72
2024-04-30T20:15:41.691Z,96596.19
2024-04-30T20:18:28.674Z,96594.06
2024-04-30T20:21:16.514Z,96584.88
2024-04-30T20:24:03.864Z,96588.22
2024-04-30T20:26:50.826Z,96588.03
2024-04-30T20:29:37.967Z,96583.19
2024-04-30T20:32:25.022Z,96588.13
2024-04-30T20:35:12.067Z,96588.75
2024-04-30T20:37:59.023Z,96588.59
2024-04-30T20:40:45.976Z,96584.03
2024-04-30T20:43:33.024Z,96581.09
2024-04-30T20:46:20.509Z,96585.28
2024-04-30T20:49:07.633Z,96578.78
2024-04-30T20:51:54.870Z,96582.16
2024-04-30T20:54:41.911Z,96579.25
2024-04-30T20:57:28.901Z,96581.78
2024-04-30T21:00:16.321Z,96579.66
2024-04-30T21:03:03.530Z,96577.53
2024-04-30T21:05:50.670Z,96581.97
2024-04-30T21:08:38.564Z,96579.03
2024-04-30T21:11:26.005Z,96578.84
2024-04-30T21:14:13.050Z,96578.63
2024-04-30T21:17:02.244Z,96570.25
2024-04-30T21:19:52.247Z,96569.25
2024-04-30T21:22:39.321Z,96563.59
2024-04-30T21:25:26.336Z,96562.59
2024-04-30T21:28:13.332Z,96567.53
2024-04-30T21:31:00.371Z,96565.72
2024-04-30T21:33:47.453Z,96565.53
2024-04-30T21:36:35.038Z,96568.06
2024-04-30T21:39:22.046Z,96563.22
2024-04-30T21:42:09.016Z,96563.00
2024-04-30T21:44:57.946Z,96554.63
2024-04-30T21:47:45.187Z,96557.94
2024-04-30T21:50:32.226Z,96547.16
2024-04-30T21:53:19.232Z,96548.56
2024-04-30T21:56:06.425Z,96549.44
2024-04-30T21:58:53.372Z,96546.53
2024-04-30T22:01:46.207Z,96545.50
2024-04-30T22:04:33.832Z,96545.31
2024-04-30T22:07:21.798Z,96544.28
2024-04-30T22:10:08.758Z,96544.91
2024-04-30T22:12:55.786Z,96540.03
2024-04-30T22:15:44.273Z,96541.75
2024-04-30T22:18:32.384Z,96543.47
2024-04-30T22:21:21.188Z,96537.00
2024-04-30T22:24:09.691Z,96538.69
2024-04-30T22:26:56.663Z,96540.41
2024-04-30T22:29:43.624Z,96535.56
2024-04-30T22:32:30.680Z,96535.34
2024-04-30T22:35:17.784Z,96529.69
2024-04-30T22:38:04.993Z,96531.72
2024-04-30T22:40:52.293Z,96533.91
2024-04-30T22:43:39.378Z,96535.63
2024-04-30T22:46:26.329Z,96534.06
2024-04-30T22:49:13.387Z,96532.75
2024-04-30T22:52:00.392Z,96537.97
2024-04-30T22:54:50.968Z,96535.06
2024-04-30T22:57:38.353Z,96531.00
2024-04-30T23:00:25.499Z,96513.94
2024-04-30T23:03:12.529Z,96518.34
2024-04-30T23:05:59.513Z,96524.41
2024-04-30T23:08:46.458Z,96516.63
2024-04-30T23:11:33.459Z,96521.53
2024-04-30T23:14:20.452Z,96517.00
2024-04-30T23:17:07.459Z,96528.47
2024-04-30T23:19:54.465Z,96525.53
2024-04-30T23:22:41.470Z,96525.31
2024-04-30T23:25:28.402Z,96525.41
2024-04-30T23:28:15.402Z,96529.81
2024-04-30T23:31:03.303Z,96530.41
2024-04-30T23:33:51.524Z,96528.53
2024-04-30T23:36:38.692Z,96527.22
2024-04-30T23:39:25.875Z,96532.69
2024-04-30T23:42:20.945Z,96528.16
2024-04-30T23:45:10.204Z,96540.72
2024-04-30T23:47:57.232Z,96539.69
2024-04-30T23:50:44.206Z,96532.41
2024-04-30T23:53:31.216Z,96535.72
2024-04-30T23:56:18.177Z,96538.50
2024-04-30T23:59:05.177Z,96534.75
